sensor_id;sensor_type;location;lat;lon;timestamp;temperature;humidity
31799;DHT22;18374;51.136;3.502;2022-12-18T00:01:22;-3.50;99.90
31799;DHT22;18374;51.136;3.502;2022-12-18T00:04:01;-3.50;99.90
31799;DHT22;18374;51.136;3.502;2022-12-18T00:06:31;-3.50;99.90
31799;DHT22;18374;51.136;3.502;2022-12-18T00:09:00;-3.60;99.90
31799;DHT22;18374;51.136;3.502;2022-12-18T00:11:29;-3.60;99.90
31799;DHT22;18374;51.136;3.502;2022-12-18T00:13:58;-3.70;99.90
31799;DHT22;18374;51.136;3.502;2022-12-18T00:16:27;-3.60;99.90
31799;DHT22;18374;51.136;3.502;2022-12-18T00:18:57;-3.70;99.90
31799;DHT22;18374;51.136;3.502;2022-12-18T00:21:25;-3.70;99.90
31799;DHT22;18374;51.136;3.502;2022-12-18T00:23:54;-3.70;99.90
31799;DHT22;18374;51.136;3.502;2022-12-18T00:26:22;-3.70;99.90
31799;DHT22;18374;51.136;3.502;2022-12-18T00:28:58;-3.70;99.90
31799;DHT22;18374;51.136;3.502;2022-12-18T00:31:32;-3.70;99.90
31799;DHT22;18374;51.136;3.502;2022-12-18T00:34:00;-3.70;99.90
31799;DHT22;18374;51.136;3.502;2022-12-18T00:36:29;-3.80;99.90
31799;DHT22;18374;51.136;3.502;2022-12-18T00:38:59;-3.80;99.90
31799;DHT22;18374;51.136;3.502;2022-12-18T00:41:29;-3.80;99.90
31799;DHT22;18374;51.136;3.502;2022-12-18T00:44:15;-3.80;99.90
31799;DHT22;18374;51.136;3.502;2022-12-18T00:46:45;-3.80;99.90
31799;DHT22;18374;51.136;3.502;2022-12-18T00:49:13;-3.80;99.90
31799;DHT22;18374;51.136;3.502;2022-12-18T00:51:41;-3.80;99.90
31799;DHT22;18374;51.136;3.502;2022-12-18T00:54:09;-3.80;99.90
31799;DHT22;18374;51.136;3.502;2022-12-18T00:56:37;-3.70;99.90
31799;DHT22;18374;51.136;3.502;2022-12-18T00:59:15;-3.80;99.90
31799;DHT22;18374;51.136;3.502;2022-12-18T01:01:43;-3.80;99.90
31799;DHT22;18374;51.136;3.502;2022-12-18T01:04:12;-3.80;99.90
31799;DHT22;18374;51.136;3.502;2022-12-18T01:06:40;-3.70;99.90
31799;DHT22;18374;51.136;3.502;2022-12-18T01:09:07;-3.80;99.90
31799;DHT22;18374;51.136;3.502;2022-12-18T01:11:36;-3.80;99.90
31799;DHT22;18374;51.136;3.502;2022-12-18T01:14:04;-3.70;99.90
31799;DHT22;18374;51.136;3.502;2022-12-18T01:16:31;-3.70;99.90
31799;DHT22;18374;51.136;3.502;2022-12-18T01:18:59;-3.70;99.90
31799;DHT22;18374;51.136;3.502;2022-12-18T01:21:27;-3.80;99.90
31799;DHT22;18374;51.136;3.502;2022-12-18T01:23:55;-3.80;99.90
31799;DHT22;18374;51.136;3.502;2022-12-18T01:26:24;-3.80;99.90
31799;DHT22;18374;51.136;3.502;2022-12-18T01:28:54;-3.80;99.90
31799;DHT22;18374;51.136;3.502;2022-12-18T01:31:24;-3.90;99.90
31799;DHT22;18374;51.136;3.502;2022-12-18T01:33:54;-3.90;99.90
31799;DHT22;18374;51.136;3.502;2022-12-18T01:36:26;-3.90;99.90
31799;DHT22;18374;51.136;3.502;2022-12-18T01:39:02;-3.90;99.90
31799;DHT22;18374;51.136;3.502;2022-12-18T01:41:34;-4.00;99.90
31799;DHT22;18374;51.136;3.502;2022-12-18T01:47:24;-4.10;99.90
31799;DHT22;18374;51.136;3.502;2022-12-18T01:49:52;-4.20;99.90
31799;DHT22;18374;51.136;3.502;2022-12-18T01:52:20;-4.30;99.90
31799;DHT22;18374;51.136;3.502;2022-12-18T01:54:49;-4.40;99.90
31799;DHT22;18374;51.136;3.502;2022-12-18T01:57:19;-4.40;99.90
31799;DHT22;18374;51.136;3.502;2022-12-18T01:59:49;-4.40;99.90
31799;DHT22;18374;51.136;3.502;2022-12-18T02:02:20;-4.50;99.90
31799;DHT22;18374;51.136;3.502;2022-12-18T02:04:48;-4.60;99.90
31799;DHT22;18374;51.136;3.502;2022-12-18T02:18:14;-4.80;99.90
31799;DHT22;18374;51.136;3.502;2022-12-18T02:20:47;-4.90;99.90
31799;DHT22;18374;51.136;3.502;2022-12-18T02:23:47;-5.00;99.90
31799;DHT22;18374;51.136;3.502;2022-12-18T02:26:43;-5.00;99.90
31799;DHT22;18374;51.136;3.502;2022-12-18T02:29:15;-5.00;99.90
31799;DHT22;18374;51.136;3.502;2022-12-18T02:31:47;-5.00;99.90
31799;DHT22;18374;51.136;3.502;2022-12-18T02:34:19;-5.00;99.90
31799;DHT22;18374;51.136;3.502;2022-12-18T02:36:50;-5.00;99.90
31799;DHT22;18374;51.136;3.502;2022-12-18T02:39:18;-5.00;99.90
31799;DHT22;18374;51.136;3.502;2022-12-18T02:41:57;-5.10;99.90
31799;DHT22;18374;51.136;3.502;2022-12-18T02:44:25;-5.10;99.90
31799;DHT22;18374;51.136;3.502;2022-12-18T02:46:54;-5.10;99.90
31799;DHT22;18374;51.136;3.502;2022-12-18T03:01:01;-5.20;99.90
31799;DHT22;18374;51.136;3.502;2022-12-18T03:03:35;-5.20;99.90
31799;DHT22;18374;51.136;3.502;2022-12-18T03:06:26;-5.20;99.90
31799;DHT22;18374;51.136;3.502;2022-12-18T03:09:02;-5.30;99.90
31799;DHT22;18374;51.136;3.502;2022-12-18T03:11:40;-5.40;99.90
31799;DHT22;18374;51.136;3.502;2022-12-18T03:14:32;-5.40;99.90
31799;DHT22;18374;51.136;3.502;2022-12-18T03:17:02;-5.40;99.90
31799;DHT22;18374;51.136;3.502;2022-12-18T03:19:32;-5.50;99.90
31799;DHT22;18374;51.136;3.502;2022-12-18T03:22:01;-5.50;99.90
31799;DHT22;18374;51.136;3.502;2022-12-18T03:24:39;-5.50;99.90
31799;DHT22;18374;51.136;3.502;2022-12-18T03:27:11;-5.60;99.90
31799;DHT22;18374;51.136;3.502;2022-12-18T03:29:46;-5.60;99.90
31799;DHT22;18374;51.136;3.502;2022-12-18T03:32:23;-5.60;99.90
31799;DHT22;18374;51.136;3.502;2022-12-18T03:34:53;-5.60;99.90
31799;DHT22;18374;51.136;3.502;2022-12-18T03:37:28;-5.70;99.90
31799;DHT22;18374;51.136;3.502;2022-12-18T03:39:57;-5.70;99.90
31799;DHT22;18374;51.136;3.502;2022-12-18T03:45:22;-5.80;99.90
31799;DHT22;18374;51.136;3.502;2022-12-18T03:50:31;-5.80;99.90
31799;DHT22;18374;51.136;3.502;2022-12-18T03:55:42;-5.70;99.90
31799;DHT22;18374;51.136;3.502;2022-12-18T03:58:11;-5.60;99.90
31799;DHT22;18374;51.136;3.502;2022-12-18T04:00:52;-5.60;99.90
31799;DHT22;18374;51.136;3.502;2022-12-18T04:03:23;-5.50;99.90
31799;DHT22;18374;51.136;3.502;2022-12-18T04:05:54;-5.60;99.90
31799;DHT22;18374;51.136;3.502;2022-12-18T04:08:22;-5.60;99.90
31799;DHT22;18374;51.136;3.502;2022-12-18T04:11:00;-5.50;99.90
31799;DHT22;18374;51.136;3.502;2022-12-18T04:13:29;-5.50;99.90
31799;DHT22;18374;51.136;3.502;2022-12-18T04:16:01;-5.40;99.90
31799;DHT22;18374;51.136;3.502;2022-12-18T04:18:29;-5.40;99.90
31799;DHT22;18374;51.136;3.502;2022-12-18T04:20:59;-5.50;99.90
31799;DHT22;18374;51.136;3.502;2022-12-18T04:23:27;-5.40;99.90
31799;DHT22;18374;51.136;3.502;2022-12-18T04:25:57;-5.50;99.90
31799;DHT22;18374;51.136;3.502;2022-12-18T04:28:44;-5.50;99.90
31799;DHT22;18374;51.136;3.502;2022-12-18T04:31:12;-5.40;99.90
31799;DHT22;18374;51.136;3.502;2022-12-18T04:33:39;-5.40;99.90
31799;DHT22;18374;51.136;3.502;2022-12-18T04:36:09;-5.40;99.90
31799;DHT22;18374;51.136;3.502;2022-12-18T04:38:37;-5.40;99.90
31799;DHT22;18374;51.136;3.502;2022-12-18T04:41:08;-5.30;99.90
31799;DHT22;18374;51.136;3.502;2022-12-18T04:43:36;-5.30;99.90
31799;DHT22;18374;51.136;3.502;2022-12-18T04:46:04;-5.30;99.90
31799;DHT22;18374;51.136;3.502;2022-12-18T04:48:34;-5.40;99.90
31799;DHT22;18374;51.136;3.502;2022-12-18T04:51:02;-5.40;99.90
31799;DHT22;18374;51.136;3.502;2022-12-18T04:53:30;-5.40;99.90
31799;DHT22;18374;51.136;3.502;2022-12-18T04:56:16;-5.50;99.90
31799;DHT22;18374;51.136;3.502;2022-12-18T04:58:44;-5.50;99.90
31799;DHT22;18374;51.136;3.502;2022-12-18T05:01:12;-5.50;99.90
31799;DHT22;18374;51.136;3.502;2022-12-18T05:03:41;-5.50;99.90
31799;DHT22;18374;51.136;3.502;2022-12-18T05:06:09;-5.60;99.90
31799;DHT22;18374;51.136;3.502;2022-12-18T05:08:37;-5.50;99.90
31799;DHT22;18374;51.136;3.502;2022-12-18T05:11:09;-5.50;99.90
31799;DHT22;18374;51.136;3.502;2022-12-18T05:13:38;-5.50;99.90
31799;DHT22;18374;51.136;3.502;2022-12-18T05:16:07;-5.50;99.90
31799;DHT22;18374;51.136;3.502;2022-12-18T05:18:35;-5.50;99.90
31799;DHT22;18374;51.136;3.502;2022-12-18T05:21:03;-5.50;99.90
31799;DHT22;18374;51.136;3.502;2022-12-18T05:23:30;-5.50;99.90
31799;DHT22;18374;51.136;3.502;2022-12-18T05:25:59;-5.40;99.90
31799;DHT22;18374;51.136;3.502;2022-12-18T05:28:29;-5.40;99.90
31799;DHT22;18374;51.136;3.502;2022-12-18T05:30:59;-5.40;99.90
31799;DHT22;18374;51.136;3.502;2022-12-18T05:33:29;-5.40;99.90
31799;DHT22;18374;51.136;3.502;2022-12-18T05:35:59;-5.40;99.90
31799;DHT22;18374;51.136;3.502;2022-12-18T05:38:31;-5.40;99.90
31799;DHT22;18374;51.136;3.502;2022-12-18T05:41:00;-5.40;99.90
31799;DHT22;18374;51.136;3.502;2022-12-18T05:43:27;-5.30;99.90
31799;DHT22;18374;51.136;3.502;2022-12-18T05:45:56;-5.30;99.90
31799;DHT22;18374;51.136;3.502;2022-12-18T05:48:24;-5.30;99.90
31799;DHT22;18374;51.136;3.502;2022-12-18T05:50:52;-5.30;99.90
31799;DHT22;18374;51.136;3.502;2022-12-18T05:53:20;-5.30;99.90
31799;DHT22;18374;51.136;3.502;2022-12-18T05:55:47;-5.20;99.90
31799;DHT22;18374;51.136;3.502;2022-12-18T05:58:15;-5.30;99.90
31799;DHT22;18374;51.136;3.502;2022-12-18T06:00:44;-5.30;99.90
31799;DHT22;18374;51.136;3.502;2022-12-18T06:03:12;-5.20;99.90
31799;DHT22;18374;51.136;3.502;2022-12-18T06:05:42;-5.20;99.90
31799;DHT22;18374;51.136;3.502;2022-12-18T06:08:11;-5.20;99.90
31799;DHT22;18374;51.136;3.502;2022-12-18T06:10:39;-5.20;99.90
31799;DHT22;18374;51.136;3.502;2022-12-18T06:13:07;-5.20;99.90
31799;DHT22;18374;51.136;3.502;2022-12-18T06:15:38;-5.20;99.90
31799;DHT22;18374;51.136;3.502;2022-12-18T06:18:06;-5.20;99.90
31799;DHT22;18374;51.136;3.502;2022-12-18T06:20:33;-5.30;99.90
31799;DHT22;18374;51.136;3.502;2022-12-18T06:23:03;-5.30;99.90
31799;DHT22;18374;51.136;3.502;2022-12-18T06:25:30;-5.30;99.90
31799;DHT22;18374;51.136;3.502;2022-12-18T06:27:58;-5.30;99.90
31799;DHT22;18374;51.136;3.502;2022-12-18T06:30:26;-5.30;99.90
31799;DHT22;18374;51.136;3.502;2022-12-18T06:32:53;-5.30;99.90
31799;DHT22;18374;51.136;3.502;2022-12-18T06:35:23;-5.30;99.90
31799;DHT22;18374;51.136;3.502;2022-12-18T06:37:50;-5.20;99.90
31799;DHT22;18374;51.136;3.502;2022-12-18T06:40:18;-5.30;99.90
31799;DHT22;18374;51.136;3.502;2022-12-18T06:42:46;-5.30;99.90
31799;DHT22;18374;51.136;3.502;2022-12-18T06:45:13;-5.30;99.90
31799;DHT22;18374;51.136;3.502;2022-12-18T06:47:41;-5.30;99.90
31799;DHT22;18374;51.136;3.502;2022-12-18T06:50:08;-5.30;99.90
31799;DHT22;18374;51.136;3.502;2022-12-18T06:52:36;-5.30;99.90
31799;DHT22;18374;51.136;3.502;2022-12-18T06:55:04;-5.30;99.90
31799;DHT22;18374;51.136;3.502;2022-12-18T06:57:32;-5.30;99.90
31799;DHT22;18374;51.136;3.502;2022-12-18T06:59:59;-5.30;99.90
31799;DHT22;18374;51.136;3.502;2022-12-18T07:02:27;-5.40;99.90
31799;DHT22;18374;51.136;3.502;2022-12-18T07:04:54;-5.40;99.90
31799;DHT22;18374;51.136;3.502;2022-12-18T07:07:22;-5.40;99.90
31799;DHT22;18374;51.136;3.502;2022-12-18T07:09:50;-5.40;99.90
31799;DHT22;18374;51.136;3.502;2022-12-18T07:12:17;-5.50;99.90
31799;DHT22;18374;51.136;3.502;2022-12-18T07:14:45;-5.50;99.90
31799;DHT22;18374;51.136;3.502;2022-12-18T07:17:12;-5.50;99.90
31799;DHT22;18374;51.136;3.502;2022-12-18T07:19:40;-5.50;99.90
31799;DHT22;18374;51.136;3.502;2022-12-18T07:22:07;-5.50;99.90
31799;DHT22;18374;51.136;3.502;2022-12-18T07:24:35;-5.50;99.90
31799;DHT22;18374;51.136;3.502;2022-12-18T07:27:02;-5.40;99.90
31799;DHT22;18374;51.136;3.502;2022-12-18T07:29:30;-5.40;99.90
31799;DHT22;18374;51.136;3.502;2022-12-18T07:31:58;-5.40;99.90
31799;DHT22;18374;51.136;3.502;2022-12-18T07:34:26;-5.40;99.90
31799;DHT22;18374;51.136;3.502;2022-12-18T07:36:53;-5.40;99.90
31799;DHT22;18374;51.136;3.502;2022-12-18T07:39:20;-5.40;99.90
31799;DHT22;18374;51.136;3.502;2022-12-18T07:41:48;-5.40;99.90
31799;DHT22;18374;51.136;3.502;2022-12-18T07:44:36;-5.40;99.90
31799;DHT22;18374;51.136;3.502;2022-12-18T07:47:03;-5.40;99.90
31799;DHT22;18374;51.136;3.502;2022-12-18T07:49:37;-5.30;99.90
31799;DHT22;18374;51.136;3.502;2022-12-18T07:52:05;-5.30;99.90
31799;DHT22;18374;51.136;3.502;2022-12-18T07:54:32;-5.30;99.90
31799;DHT22;18374;51.136;3.502;2022-12-18T07:57:00;-5.30;99.90
31799;DHT22;18374;51.136;3.502;2022-12-18T07:59:27;-5.20;99.90
31799;DHT22;18374;51.136;3.502;2022-12-18T08:01:55;-5.30;99.90
31799;DHT22;18374;51.136;3.502;2022-12-18T08:04:23;-5.20;99.90
31799;DHT22;18374;51.136;3.502;2022-12-18T08:06:50;-5.20;99.90
31799;DHT22;18374;51.136;3.502;2022-12-18T08:09:18;-5.10;99.90
31799;DHT22;18374;51.136;3.502;2022-12-18T08:11:45;-5.10;99.90
31799;DHT22;18374;51.136;3.502;2022-12-18T08:14:13;-5.10;99.90
31799;DHT22;18374;51.136;3.502;2022-12-18T08:16:41;-5.00;99.90
31799;DHT22;18374;51.136;3.502;2022-12-18T08:19:09;-5.00;99.90
31799;DHT22;18374;51.136;3.502;2022-12-18T08:21:37;-4.90;99.90
31799;DHT22;18374;51.136;3.502;2022-12-18T08:24:04;-4.90;99.90
31799;DHT22;18374;51.136;3.502;2022-12-18T08:26:32;-4.80;99.90
31799;DHT22;18374;51.136;3.502;2022-12-18T08:29:00;-4.70;99.90
31799;DHT22;18374;51.136;3.502;2022-12-18T08:31:28;-4.70;99.90
31799;DHT22;18374;51.136;3.502;2022-12-18T08:33:56;-4.60;99.90
31799;DHT22;18374;51.136;3.502;2022-12-18T08:36:24;-4.60;99.90
31799;DHT22;18374;51.136;3.502;2022-12-18T08:38:53;-4.50;99.90
31799;DHT22;18374;51.136;3.502;2022-12-18T08:41:20;-4.50;99.90
31799;DHT22;18374;51.136;3.502;2022-12-18T08:43:48;-4.50;99.90
31799;DHT22;18374;51.136;3.502;2022-12-18T08:46:36;-4.40;99.90
31799;DHT22;18374;51.136;3.502;2022-12-18T08:49:05;-4.40;99.90
31799;DHT22;18374;51.136;3.502;2022-12-18T08:51:34;-4.30;99.90
31799;DHT22;18374;51.136;3.502;2022-12-18T08:54:02;-4.30;99.90
31799;DHT22;18374;51.136;3.502;2022-12-18T08:56:32;-4.30;99.90
31799;DHT22;18374;51.136;3.502;2022-12-18T08:59:01;-4.20;99.90
31799;DHT22;18374;51.136;3.502;2022-12-18T09:01:28;-4.20;99.90
31799;DHT22;18374;51.136;3.502;2022-12-18T09:03:56;-4.20;99.90
31799;DHT22;18374;51.136;3.502;2022-12-18T09:06:24;-4.20;99.90
31799;DHT22;18374;51.136;3.502;2022-12-18T09:08:51;-4.00;99.90
31799;DHT22;18374;51.136;3.502;2022-12-18T09:11:23;-4.10;99.90
31799;DHT22;18374;51.136;3.502;2022-12-18T09:13:52;-4.10;99.90
31799;DHT22;18374;51.136;3.502;2022-12-18T09:16:21;-3.90;99.90
31799;DHT22;18374;51.136;3.502;2022-12-18T09:18:58;-3.90;99.90
31799;DHT22;18374;51.136;3.502;2022-12-18T09:21:30;-3.90;99.90
31799;DHT22;18374;51.136;3.502;2022-12-18T09:24:03;-3.80;99.90
31799;DHT22;18374;51.136;3.502;2022-12-18T09:26:35;-3.80;99.90
31799;DHT22;18374;51.136;3.502;2022-12-18T09:29:03;-3.80;99.90
31799;DHT22;18374;51.136;3.502;2022-12-18T09:31:31;-3.70;99.90
31799;DHT22;18374;51.136;3.502;2022-12-18T09:33:58;-3.70;99.90
31799;DHT22;18374;51.136;3.502;2022-12-18T09:36:26;-3.70;99.90
31799;DHT22;18374;51.136;3.502;2022-12-18T09:38:53;-3.60;99.90
31799;DHT22;18374;51.136;3.502;2022-12-18T09:43:59;-3.60;99.90
31799;DHT22;18374;51.136;3.502;2022-12-18T09:46:30;-3.50;99.90
31799;DHT22;18374;51.136;3.502;2022-12-18T09:49:02;-3.50;99.90
31799;DHT22;18374;51.136;3.502;2022-12-18T09:51:50;-3.40;99.90
31799;DHT22;18374;51.136;3.502;2022-12-18T09:54:33;-3.30;99.90
31799;DHT22;18374;51.136;3.502;2022-12-18T09:57:03;-3.30;99.90
31799;DHT22;18374;51.136;3.502;2022-12-18T09:59:38;-3.20;99.90
31799;DHT22;18374;51.136;3.502;2022-12-18T10:02:19;-3.20;99.90
31799;DHT22;18374;51.136;3.502;2022-12-18T10:05:09;-3.20;99.90
31799;DHT22;18374;51.136;3.502;2022-12-18T10:13:02;-3.10;99.90
31799;DHT22;18374;51.136;3.502;2022-12-18T10:15:40;-3.00;99.90
31799;DHT22;18374;51.136;3.502;2022-12-18T10:21:18;-2.90;99.90
31799;DHT22;18374;51.136;3.502;2022-12-18T10:24:14;-2.90;99.90
31799;DHT22;18374;51.136;3.502;2022-12-18T10:26:52;-2.90;99.90
31799;DHT22;18374;51.136;3.502;2022-12-18T10:29:21;-2.90;99.90
31799;DHT22;18374;51.136;3.502;2022-12-18T10:31:48;-2.90;99.90
31799;DHT22;18374;51.136;3.502;2022-12-18T10:34:16;-2.80;99.90
31799;DHT22;18374;51.136;3.502;2022-12-18T10:36:43;-2.80;99.90
31799;DHT22;18374;51.136;3.502;2022-12-18T10:39:18;-2.80;99.90
31799;DHT22;18374;51.136;3.502;2022-12-18T10:41:49;-2.80;99.90
31799;DHT22;18374;51.136;3.502;2022-12-18T10:44:20;-2.80;99.90
31799;DHT22;18374;51.136;3.502;2022-12-18T10:46:53;-2.70;99.90
31799;DHT22;18374;51.136;3.502;2022-12-18T10:49:26;-2.70;99.90
31799;DHT22;18374;51.136;3.502;2022-12-18T10:55:17;-2.70;99.90
31799;DHT22;18374;51.136;3.502;2022-12-18T10:57:40;-2.60;99.90
31799;DHT22;18374;51.136;3.502;2022-12-18T11:02:56;-2.60;99.90
31799;DHT22;18374;51.136;3.502;2022-12-18T11:05:26;-2.60;99.90
31799;DHT22;18374;51.136;3.502;2022-12-18T11:07:58;-2.60;99.90
31799;DHT22;18374;51.136;3.502;2022-12-18T11:10:36;-2.60;99.90
31799;DHT22;18374;51.136;3.502;2022-12-18T11:13:17;-2.60;99.90
31799;DHT22;18374;51.136;3.502;2022-12-18T11:15:47;-2.60;99.90
31799;DHT22;18374;51.136;3.502;2022-12-18T11:18:28;-2.50;99.90
31799;DHT22;18374;51.136;3.502;2022-12-18T11:21:08;-2.50;99.90
31799;DHT22;18374;51.136;3.502;2022-12-18T11:23:36;-2.50;99.90
31799;DHT22;18374;51.136;3.502;2022-12-18T11:26:04;-2.40;99.90
31799;DHT22;18374;51.136;3.502;2022-12-18T11:29:07;-2.40;99.90
31799;DHT22;18374;51.136;3.502;2022-12-18T11:31:36;-2.30;99.90
31799;DHT22;18374;51.136;3.502;2022-12-18T11:36:57;-2.20;99.90
31799;DHT22;18374;51.136;3.502;2022-12-18T11:50:52;-2.10;99.90
31799;DHT22;18374;51.136;3.502;2022-12-18T11:53:21;-2.00;99.90
31799;DHT22;18374;51.136;3.502;2022-12-18T12:26:38;-1.50;99.90
31799;DHT22;18374;51.136;3.502;2022-12-18T12:34:49;-1.40;99.90
31799;DHT22;18374;51.136;3.502;2022-12-18T12:40:01;-1.30;99.90
31799;DHT22;18374;51.136;3.502;2022-12-18T12:43:00;-1.30;99.90
31799;DHT22;18374;51.136;3.502;2022-12-18T12:45:50;-1.30;99.90
31799;DHT22;18374;51.136;3.502;2022-12-18T12:51:15;-1.30;99.90
31799;DHT22;18374;51.136;3.502;2022-12-18T12:53:45;-1.20;99.90
31799;DHT22;18374;51.136;3.502;2022-12-18T12:56:13;-1.20;99.90
31799;DHT22;18374;51.136;3.502;2022-12-18T13:06:57;-1.20;99.90
31799;DHT22;18374;51.136;3.502;2022-12-18T13:09:30;-1.20;99.90
31799;DHT22;18374;51.136;3.502;2022-12-18T13:12:03;-1.20;99.90
31799;DHT22;18374;51.136;3.502;2022-12-18T13:14:50;-1.10;99.90
31799;DHT22;18374;51.136;3.502;2022-12-18T13:19:51;-1.00;99.90
31799;DHT22;18374;51.136;3.502;2022-12-18T13:25:00;-0.90;99.90
31799;DHT22;18374;51.136;3.502;2022-12-18T13:38:23;-0.80;99.90
31799;DHT22;18374;51.136;3.502;2022-12-18T13:40:53;-0.80;99.90
31799;DHT22;18374;51.136;3.502;2022-12-18T13:48:35;-0.90;99.90
31799;DHT22;18374;51.136;3.502;2022-12-18T13:51:06;-1.00;99.90
31799;DHT22;18374;51.136;3.502;2022-12-18T13:56:06;-1.00;99.90
31799;DHT22;18374;51.136;3.502;2022-12-18T13:58:34;-1.00;99.90
31799;DHT22;18374;51.136;3.502;2022-12-18T14:01:02;-1.00;99.90
31799;DHT22;18374;51.136;3.502;2022-12-18T14:03:31;-1.00;99.90
31799;DHT22;18374;51.136;3.502;2022-12-18T14:06:00;-1.00;99.90
31799;DHT22;18374;51.136;3.502;2022-12-18T14:08:32;-1.00;99.90
31799;DHT22;18374;51.136;3.502;2022-12-18T14:11:04;-1.00;99.90
31799;DHT22;18374;51.136;3.502;2022-12-18T14:13:35;-1.00;99.90
31799;DHT22;18374;51.136;3.502;2022-12-18T14:16:05;-0.90;99.90
31799;DHT22;18374;51.136;3.502;2022-12-18T14:18:52;-1.00;99.90
31799;DHT22;18374;51.136;3.502;2022-12-18T14:21:37;-0.90;99.90
31799;DHT22;18374;51.136;3.502;2022-12-18T14:24:19;-0.90;99.90
31799;DHT22;18374;51.136;3.502;2022-12-18T14:26:49;-0.90;99.90
31799;DHT22;18374;51.136;3.502;2022-12-18T14:29:24;-0.90;99.90
31799;DHT22;18374;51.136;3.502;2022-12-18T14:32:04;-0.90;99.90
31799;DHT22;18374;51.136;3.502;2022-12-18T14:34:36;-0.90;99.90
31799;DHT22;18374;51.136;3.502;2022-12-18T14:37:04;-0.90;99.90
31799;DHT22;18374;51.136;3.502;2022-12-18T14:39:31;-0.90;99.90
31799;DHT22;18374;51.136;3.502;2022-12-18T14:41:59;-0.90;99.90
31799;DHT22;18374;51.136;3.502;2022-12-18T14:44:26;-0.90;99.90
31799;DHT22;18374;51.136;3.502;2022-12-18T14:47:12;-0.90;99.90
31799;DHT22;18374;51.136;3.502;2022-12-18T14:49:43;-0.90;99.90
31799;DHT22;18374;51.136;3.502;2022-12-18T14:52:17;-0.90;99.90
31799;DHT22;18374;51.136;3.502;2022-12-18T14:54:52;-0.90;99.90
31799;DHT22;18374;51.136;3.502;2022-12-18T14:57:29;-0.90;99.90
31799;DHT22;18374;51.136;3.502;2022-12-18T15:00:05;-0.90;99.90
31799;DHT22;18374;51.136;3.502;2022-12-18T15:02:34;-0.90;99.90
31799;DHT22;18374;51.136;3.502;2022-12-18T15:05:04;-0.80;99.90
31799;DHT22;18374;51.136;3.502;2022-12-18T15:07:46;-0.80;99.90
31799;DHT22;18374;51.136;3.502;2022-12-18T15:10:25;-0.80;99.90
31799;DHT22;18374;51.136;3.502;2022-12-18T15:18:02;-0.80;99.90
31799;DHT22;18374;51.136;3.502;2022-12-18T15:20:46;-0.70;99.90
31799;DHT22;18374;51.136;3.502;2022-12-18T15:23:20;-0.80;99.90
31799;DHT22;18374;51.136;3.502;2022-12-18T15:25:54;-0.80;99.90
31799;DHT22;18374;51.136;3.502;2022-12-18T15:28:29;-0.80;99.90
31799;DHT22;18374;51.136;3.502;2022-12-18T15:31:02;-0.80;99.90
31799;DHT22;18374;51.136;3.502;2022-12-18T15:33:31;-0.80;99.90
31799;DHT22;18374;51.136;3.502;2022-12-18T15:36:04;-0.80;99.90
31799;DHT22;18374;51.136;3.502;2022-12-18T15:38:36;-0.80;99.90
31799;DHT22;18374;51.136;3.502;2022-12-18T15:41:04;-0.80;99.90
31799;DHT22;18374;51.136;3.502;2022-12-18T15:43:39;-0.80;99.90
31799;DHT22;18374;51.136;3.502;2022-12-18T15:46:25;-0.80;99.90
31799;DHT22;18374;51.136;3.502;2022-12-18T15:48:54;-0.70;99.90
31799;DHT22;18374;51.136;3.502;2022-12-18T15:51:29;-0.80;99.90
31799;DHT22;18374;51.136;3.502;2022-12-18T15:54:00;-0.70;99.90
31799;DHT22;18374;51.136;3.502;2022-12-18T15:56:30;-0.70;99.90
31799;DHT22;18374;51.136;3.502;2022-12-18T15:59:18;-0.70;99.90
31799;DHT22;18374;51.136;3.502;2022-12-18T16:01:47;-0.70;99.90
31799;DHT22;18374;51.136;3.502;2022-12-18T16:04:17;-0.70;99.90
31799;DHT22;18374;51.136;3.502;2022-12-18T16:06:47;-0.70;99.90
31799;DHT22;18374;51.136;3.502;2022-12-18T16:09:36;-0.70;99.90
31799;DHT22;18374;51.136;3.502;2022-12-18T16:12:04;-0.70;99.90
31799;DHT22;18374;51.136;3.502;2022-12-18T16:14:33;-0.70;99.90
31799;DHT22;18374;51.136;3.502;2022-12-18T16:17:02;-0.70;99.90
31799;DHT22;18374;51.136;3.502;2022-12-18T16:19:32;-0.70;99.90
31799;DHT22;18374;51.136;3.502;2022-12-18T16:22:03;-0.60;99.90
31799;DHT22;18374;51.136;3.502;2022-12-18T16:24:31;-0.60;99.90
31799;DHT22;18374;51.136;3.502;2022-12-18T16:27:00;-0.60;99.90
31799;DHT22;18374;51.136;3.502;2022-12-18T16:29:28;-0.50;99.90
31799;DHT22;18374;51.136;3.502;2022-12-18T16:31:56;-0.50;99.90
31799;DHT22;18374;51.136;3.502;2022-12-18T16:34:26;-0.50;99.90
31799;DHT22;18374;51.136;3.502;2022-12-18T16:36:56;-0.50;99.90
31799;DHT22;18374;51.136;3.502;2022-12-18T16:39:32;-0.50;99.90
31799;DHT22;18374;51.136;3.502;2022-12-18T16:42:13;-0.40;99.90
31799;DHT22;18374;51.136;3.502;2022-12-18T16:44:44;-0.40;99.90
31799;DHT22;18374;51.136;3.502;2022-12-18T16:47:12;-0.30;99.90
31799;DHT22;18374;51.136;3.502;2022-12-18T16:49:42;-0.40;99.90
31799;DHT22;18374;51.136;3.502;2022-12-18T16:52:12;-0.30;99.90
31799;DHT22;18374;51.136;3.502;2022-12-18T16:54:40;-0.40;99.90
31799;DHT22;18374;51.136;3.502;2022-12-18T16:57:08;-0.30;99.90
31799;DHT22;18374;51.136;3.502;2022-12-18T16:59:37;-0.30;99.90
31799;DHT22;18374;51.136;3.502;2022-12-18T17:02:05;-0.30;99.90
31799;DHT22;18374;51.136;3.502;2022-12-18T17:04:34;-0.30;99.90
31799;DHT22;18374;51.136;3.502;2022-12-18T17:07:01;-0.30;99.90
31799;DHT22;18374;51.136;3.502;2022-12-18T17:09:30;-0.30;99.90
31799;DHT22;18374;51.136;3.502;2022-12-18T17:11:58;-0.30;99.90
31799;DHT22;18374;51.136;3.502;2022-12-18T17:14:30;-0.20;99.90
31799;DHT22;18374;51.136;3.502;2022-12-18T17:16:59;-0.20;99.90
31799;DHT22;18374;51.136;3.502;2022-12-18T17:19:47;-0.20;99.90
31799;DHT22;18374;51.136;3.502;2022-12-18T17:22:14;-0.10;99.90
31799;DHT22;18374;51.136;3.502;2022-12-18T17:24:41;-0.10;99.90
31799;DHT22;18374;51.136;3.502;2022-12-18T17:27:09;-0.10;99.90
31799;DHT22;18374;51.136;3.502;2022-12-18T17:29:36;-0.10;99.90
31799;DHT22;18374;51.136;3.502;2022-12-18T17:32:11;0.00;99.90
31799;DHT22;18374;51.136;3.502;2022-12-18T17:34:39;-0.10;99.90
31799;DHT22;18374;51.136;3.502;2022-12-18T17:37:07;-0.10;99.90
31799;DHT22;18374;51.136;3.502;2022-12-18T17:39:35;-0.10;99.90
31799;DHT22;18374;51.136;3.502;2022-12-18T17:42:02;-0.10;99.90
31799;DHT22;18374;51.136;3.502;2022-12-18T17:44:31;-0.10;99.90
31799;DHT22;18374;51.136;3.502;2022-12-18T17:47:02;0.00;99.90
31799;DHT22;18374;51.136;3.502;2022-12-18T17:49:30;-0.10;99.90
31799;DHT22;18374;51.136;3.502;2022-12-18T17:51:57;-0.10;99.90
31799;DHT22;18374;51.136;3.502;2022-12-18T17:54:25;0.00;99.90
31799;DHT22;18374;51.136;3.502;2022-12-18T17:56:52;0.00;99.90
31799;DHT22;18374;51.136;3.502;2022-12-18T17:59:20;0.00;99.90
31799;DHT22;18374;51.136;3.502;2022-12-18T18:01:48;0.00;99.90
31799;DHT22;18374;51.136;3.502;2022-12-18T18:04:16;0.00;99.90
31799;DHT22;18374;51.136;3.502;2022-12-18T18:06:44;0.00;99.90
31799;DHT22;18374;51.136;3.502;2022-12-18T18:09:12;0.00;99.90
31799;DHT22;18374;51.136;3.502;2022-12-18T18:11:46;0.10;99.90
31799;DHT22;18374;51.136;3.502;2022-12-18T18:14:32;0.10;99.90
31799;DHT22;18374;51.136;3.502;2022-12-18T18:17:00;0.00;99.90
31799;DHT22;18374;51.136;3.502;2022-12-18T18:19:31;0.10;99.90
31799;DHT22;18374;51.136;3.502;2022-12-18T18:21:59;0.10;99.90